Terminal Aerodrome Forecast
Issued by NWS Omaha/Valley, NE

Home | Current Version | Previous Version | Text Only | Print | Product List | Glossary On
Versions: 1 2 3 4 5 6 7 8 9 10 11 12 13 14 15 16 17 18 19 20
000
FTUS43 KOAX 231720
TAFOMA
TAF
KOMA 231720Z 2318/2418 VRB04KT P6SM OVC015
     FM232300 12007KT P6SM BKN025
     FM240500 13008KT 6SM BR BKN012
     FM241000 13010KT 4SM BR SCT008 BKN050
     FM241400 12014KT P6SM OVC015=

USA.gov is the U.S. government's official web portal to all federal, state and local government web resources and services.